Terminal Aerodrome Forecast
Issued by NWS

Home | Current Version | Previous Version | Text Only | Print | Product List | Glossary On
Versions: 1 2 3 4 5 6 7 8 9 10 11 12 13 14 15 16 17
000
FTUS46 KSGX 282339
TAFONT
TAF
KONT 282339Z 2900/3006 25010G15KT P6SM FEW090 BKN250
     FM290400 VRB05KT P6SM SCT250
     FM291000 VRB05KT 4SM BR BKN010
     FM291700 24005KT 6SM HZ SCT015 SCT250
     FM292200 25012G18KT P6SM SCT250
     FM300300 25010KT P6SM SCT025 SCT250=

USA.gov is the U.S. government's official web portal to all federal, state and local government web resources and services.